Terminal Aerodrome Forecast
Issued by NWS

Home | Current Version | Previous Version | Text Only | Print | Product List | Glossary On
Versions: 1 2 3 4 5 6 7 8 9 10 11 12 13 14 15 16 17 18 19 20 21 22
000
FTUS41 KPHI 180500
TAFPNE
TAF
KPNE 180528Z 1806/1906 08007KT P6SM OVC021
     FM181500 09005KT P6SM BKN028
     FM181700 13006KT P6SM OVC200
     FM190300 19003KT P6SM OVC200=

USA.gov is the U.S. government's official web portal to all federal, state and local government web resources and services.